Fairbanks, AK (99710)

7:09 PM AKDT on August 25, 2016 (GMT -0800)
AKDOT | | Change Station
Active Advisory: Special Statement

Elev 2267 ft 65.05 °N, 147.45 °W | Updated 49 minutes ago

Mostly Cloudy
Mostly Cloudy
54.0 °F
Feels Like 54.0 °F
N
6.0
Wind Variable Wind from South
Gusts 11.0 mph

Today
High -- | Low -- °F
--% Chance of Precip.
Yesterday
High -- | Low -- °F
Precip. -- in
Pressure 30.15 in
Visibility 10.0 miles
Clouds Scattered Clouds 1200 ft
Mostly Cloudy 3200 ft
Mostly Cloudy 8500 ft
Mostly Cloudy 12000 ft
Dew Point 52.0 °F
Humidity 91%
Rainfall in
Snow Depth Not available.
6:11 AM 9:31 PM
Last Quarter, 39% visible
SPECI PAFB 260208Z 21007KT 10SM SCT012 BKN032 BKN085 BKN120 16/14 A3015 RMK AO2A
Pressure 30.15 in
Visibility 10.0 miles
Clouds Scattered Clouds 1200 ft
Mostly Cloudy 3200 ft
Mostly Cloudy 8500 ft
Mostly Cloudy 12000 ft
Dew Point 52.0 °F
Humidity 91%
Rainfall in
Snow Depth Not available.
6:11 AM 9:31 PM
Last Quarter, 39% visible
SPECI PAFB 260208Z 21007KT 10SM SCT012 BKN032 BKN085 BKN120 16/14 A3015 RMK AO2A

10-Day Weather Forecast

Almanac

Astronomy

Aug. 25, 2016 Rise Set
Actual Time
Civil Twilight
Nautical Twilight
Astronomical Twilight
Moon
Length of Visible Light
Length of Day
Tomorrow will be .
, % of the Moon is Illuminated

Today's Extremes

State Highs State Lows

Community

WunderPhotos

Upload Photos

1,935,036 photos uploaded!

WunderBlog® & News

Nearby

Air Quality

  Air Quality AQ Index Pollutant
Not available.

Snow Depth

Station Depth Elevation

Earthquake Activity

City Distance Mag. Time & Date
Minimum magnitude displayed is 2.5.

Coastal Water Temperatures

Place Temperature

Stations

Nearby Weather Stations

Station Location Temp. Windchill Dew Point Humidity Wind Precip. Elev Updated Type
                   

Watches & Warnings

Special Statement
Issued: 7:02 PM AKDT Aug. 25, 2016 – National Weather Service

... Rain has ended in Fairbanks with a nice weekend to come...

The weather system that caused rain over Fairbanks today is
moving east this evening. Rain ended in Fairbanks late this
afternoon and the sun came out at 6pm. There are still scattered
showers in the area that will end about midnight.

Fog is expected to form after midnight and to linger into Friday
morning before clearing out again Friday afternoon.

Partly cloudy skies with isolated showers are expected through the
weekend with highs in the 60s and lows in the 40s.




702 PM akdt Thu Aug 25 2016

... Rain has ended in Fairbanks with a nice weekend to come...

The weather system that caused rain over Fairbanks today is
moving east this evening. Rain ended in Fairbanks late this
afternoon and the sun came out at 6pm. There are still scattered
showers in the area that will end about midnight.

Fog is expected to form after midnight and to linger into Friday
morning before clearing out again Friday afternoon.

Partly cloudy skies with isolated showers are expected through the
weekend with highs in the 60s and lows in the 40s.